sensor_id;sensor_type;location;lat;lon;timestamp;P1;durP1;ratioP1;P2;durP2;ratioP2
10248;SDS011;5169;50.560;9.714;2024-02-23T00:00:12;0.40;;;0.30;;
10248;SDS011;5169;50.560;9.714;2024-02-23T00:02:38;1.17;;;0.53;;
10248;SDS011;5169;50.560;9.714;2024-02-23T00:05:04;1.30;;;0.63;;
10248;SDS011;5169;50.560;9.714;2024-02-23T00:07:32;2.97;;;0.60;;
10248;SDS011;5169;50.560;9.714;2024-02-23T00:09:58;1.57;;;0.60;;
10248;SDS011;5169;50.560;9.714;2024-02-23T00:12:23;0.70;;;0.60;;
10248;SDS011;5169;50.560;9.714;2024-02-23T00:14:49;1.53;;;0.67;;
10248;SDS011;5169;50.560;9.714;2024-02-23T00:17:16;0.93;;;0.70;;
10248;SDS011;5169;50.560;9.714;2024-02-23T00:19:44;1.13;;;0.80;;
10248;SDS011;5169;50.560;9.714;2024-02-23T00:22:11;1.97;;;0.50;;
10248;SDS011;5169;50.560;9.714;2024-02-23T00:24:37;1.57;;;0.50;;
10248;SDS011;5169;50.560;9.714;2024-02-23T00:27:02;1.30;;;0.60;;
10248;SDS011;5169;50.560;9.714;2024-02-23T00:29:28;1.73;;;0.57;;
10248;SDS011;5169;50.560;9.714;2024-02-23T00:31:53;2.03;;;0.50;;
10248;SDS011;5169;50.560;9.714;2024-02-23T00:34:24;3.77;;;0.97;;
10248;SDS011;5169;50.560;9.714;2024-02-23T00:36:50;0.60;;;0.60;;
10248;SDS011;5169;50.560;9.714;2024-02-23T00:39:15;1.17;;;0.70;;
10248;SDS011;5169;50.560;9.714;2024-02-23T00:41:41;1.60;;;0.50;;
10248;SDS011;5169;50.560;9.714;2024-02-23T00:44:07;1.43;;;0.60;;
10248;SDS011;5169;50.560;9.714;2024-02-23T00:46:34;1.10;;;0.60;;
10248;SDS011;5169;50.560;9.714;2024-02-23T00:49:02;1.30;;;0.70;;
10248;SDS011;5169;50.560;9.714;2024-02-23T00:51:30;2.97;;;0.83;;
10248;SDS011;5169;50.560;9.714;2024-02-23T00:53:55;0.63;;;0.53;;
10248;SDS011;5169;50.560;9.714;2024-02-23T00:56:21;1.80;;;0.67;;
10248;SDS011;5169;50.560;9.714;2024-02-23T00:58:52;0.87;;;0.60;;
10248;SDS011;5169;50.560;9.714;2024-02-23T01:01:18;2.07;;;0.60;;
10248;SDS011;5169;50.560;9.714;2024-02-23T01:03:43;2.23;;;0.60;;
10248;SDS011;5169;50.560;9.714;2024-02-23T01:06:09;1.43;;;0.60;;
10248;SDS011;5169;50.560;9.714;2024-02-23T01:08:34;2.93;;;0.50;;
10248;SDS011;5169;50.560;9.714;2024-02-23T01:11:01;1.20;;;0.70;;
10248;SDS011;5169;50.560;9.714;2024-02-23T01:13:26;0.80;;;0.40;;
10248;SDS011;5169;50.560;9.714;2024-02-23T01:15:52;1.83;;;0.80;;
10248;SDS011;5169;50.560;9.714;2024-02-23T01:18:19;1.33;;;0.50;;
10248;SDS011;5169;50.560;9.714;2024-02-23T01:20:44;2.03;;;0.70;;
10248;SDS011;5169;50.560;9.714;2024-02-23T01:23:10;1.97;;;0.80;;
10248;SDS011;5169;50.560;9.714;2024-02-23T01:25:35;0.63;;;0.50;;
10248;SDS011;5169;50.560;9.714;2024-02-23T01:28:02;1.77;;;0.50;;
10248;SDS011;5169;50.560;9.714;2024-02-23T01:30:28;1.93;;;0.57;;
10248;SDS011;5169;50.560;9.714;2024-02-23T01:32:53;0.90;;;0.60;;
10248;SDS011;5169;50.560;9.714;2024-02-23T01:35:19;1.13;;;0.50;;
10248;SDS011;5169;50.560;9.714;2024-02-23T01:37:47;1.27;;;0.73;;
10248;SDS011;5169;50.560;9.714;2024-02-23T01:40:12;2.53;;;0.67;;
10248;SDS011;5169;50.560;9.714;2024-02-23T01:42:38;0.87;;;0.53;;
10248;SDS011;5169;50.560;9.714;2024-02-23T01:45:06;1.40;;;0.50;;
10248;SDS011;5169;50.560;9.714;2024-02-23T01:47:35;2.57;;;0.70;;
10248;SDS011;5169;50.560;9.714;2024-02-23T01:50:00;1.47;;;0.70;;
10248;SDS011;5169;50.560;9.714;2024-02-23T01:52:26;3.53;;;0.63;;
10248;SDS011;5169;50.560;9.714;2024-02-23T01:54:52;1.13;;;0.50;;
10248;SDS011;5169;50.560;9.714;2024-02-23T01:57:19;0.93;;;0.70;;
10248;SDS011;5169;50.560;9.714;2024-02-23T01:59:46;1.20;;;0.53;;
10248;SDS011;5169;50.560;9.714;2024-02-23T02:02:15;1.13;;;0.50;;
10248;SDS011;5169;50.560;9.714;2024-02-23T02:04:41;0.80;;;0.40;;
10248;SDS011;5169;50.560;9.714;2024-02-23T02:07:06;0.40;;;0.30;;
10248;SDS011;5169;50.560;9.714;2024-02-23T02:09:34;2.10;;;0.40;;
10248;SDS011;5169;50.560;9.714;2024-02-23T02:12:00;1.53;;;0.77;;
10248;SDS011;5169;50.560;9.714;2024-02-23T02:14:28;0.77;;;0.43;;
10248;SDS011;5169;50.560;9.714;2024-02-23T02:16:56;0.80;;;0.40;;
10248;SDS011;5169;50.560;9.714;2024-02-23T02:19:21;3.53;;;0.53;;
10248;SDS011;5169;50.560;9.714;2024-02-23T02:21:47;0.60;;;0.43;;
10248;SDS011;5169;50.560;9.714;2024-02-23T02:24:15;0.60;;;0.50;;
10248;SDS011;5169;50.560;9.714;2024-02-23T02:26:43;1.07;;;0.60;;
10248;SDS011;5169;50.560;9.714;2024-02-23T02:29:10;2.07;;;0.50;;
10248;SDS011;5169;50.560;9.714;2024-02-23T02:31:41;1.17;;;0.87;;
10248;SDS011;5169;50.560;9.714;2024-02-23T02:34:06;1.70;;;0.70;;
10248;SDS011;5169;50.560;9.714;2024-02-23T02:36:38;2.50;;;0.80;;
10248;SDS011;5169;50.560;9.714;2024-02-23T02:39:03;1.00;;;0.60;;
10248;SDS011;5169;50.560;9.714;2024-02-23T02:41:29;1.97;;;0.90;;
10248;SDS011;5169;50.560;9.714;2024-02-23T02:43:55;2.87;;;0.90;;
10248;SDS011;5169;50.560;9.714;2024-02-23T02:46:21;1.53;;;0.90;;
10248;SDS011;5169;50.560;9.714;2024-02-23T02:48:46;0.70;;;0.50;;
10248;SDS011;5169;50.560;9.714;2024-02-23T02:51:12;1.37;;;0.80;;
10248;SDS011;5169;50.560;9.714;2024-02-23T02:53:40;3.80;;;0.80;;
10248;SDS011;5169;50.560;9.714;2024-02-23T02:56:06;4.83;;;0.80;;
10248;SDS011;5169;50.560;9.714;2024-02-23T02:58:32;0.87;;;0.50;;
10248;SDS011;5169;50.560;9.714;2024-02-23T03:00:57;1.67;;;0.43;;
10248;SDS011;5169;50.560;9.714;2024-02-23T03:03:23;1.40;;;0.50;;
10248;SDS011;5169;50.560;9.714;2024-02-23T03:05:48;1.10;;;0.60;;
10248;SDS011;5169;50.560;9.714;2024-02-23T03:08:14;1.53;;;0.60;;
10248;SDS011;5169;50.560;9.714;2024-02-23T03:10:40;1.73;;;0.60;;
10248;SDS011;5169;50.560;9.714;2024-02-23T03:13:05;1.80;;;0.70;;
10248;SDS011;5169;50.560;9.714;2024-02-23T03:15:31;1.73;;;0.70;;
10248;SDS011;5169;50.560;9.714;2024-02-23T03:17:58;2.13;;;0.60;;
10248;SDS011;5169;50.560;9.714;2024-02-23T03:20:26;1.30;;;0.60;;
10248;SDS011;5169;50.560;9.714;2024-02-23T03:22:51;0.97;;;0.50;;
10248;SDS011;5169;50.560;9.714;2024-02-23T03:25:17;0.93;;;0.50;;
10248;SDS011;5169;50.560;9.714;2024-02-23T03:27:42;1.27;;;0.53;;
10248;SDS011;5169;50.560;9.714;2024-02-23T03:30:08;1.13;;;0.70;;
10248;SDS011;5169;50.560;9.714;2024-02-23T03:32:34;0.87;;;0.43;;
10248;SDS011;5169;50.560;9.714;2024-02-23T03:35:04;2.97;;;0.50;;
10248;SDS011;5169;50.560;9.714;2024-02-23T03:37:33;1.60;;;0.43;;
10248;SDS011;5169;50.560;9.714;2024-02-23T03:39:58;2.73;;;0.40;;
10248;SDS011;5169;50.560;9.714;2024-02-23T03:42:29;2.03;;;0.73;;
10248;SDS011;5169;50.560;9.714;2024-02-23T03:44:57;1.63;;;0.70;;
10248;SDS011;5169;50.560;9.714;2024-02-23T03:47:23;2.00;;;0.60;;
10248;SDS011;5169;50.560;9.714;2024-02-23T03:49:53;0.93;;;0.40;;
10248;SDS011;5169;50.560;9.714;2024-02-23T03:52:19;1.67;;;0.90;;
10248;SDS011;5169;50.560;9.714;2024-02-23T03:54:47;1.83;;;0.70;;
10248;SDS011;5169;50.560;9.714;2024-02-23T03:57:14;3.90;;;0.97;;
10248;SDS011;5169;50.560;9.714;2024-02-23T03:59:40;1.57;;;0.60;;
10248;SDS011;5169;50.560;9.714;2024-02-23T04:02:15;2.83;;;0.70;;
10248;SDS011;5169;50.560;9.714;2024-02-23T04:04:43;2.53;;;0.80;;
10248;SDS011;5169;50.560;9.714;2024-02-23T04:07:09;1.20;;;0.30;;
10248;SDS011;5169;50.560;9.714;2024-02-23T04:09:37;2.67;;;0.60;;
10248;SDS011;5169;50.560;9.714;2024-02-23T04:12:02;3.57;;;0.63;;
10248;SDS011;5169;50.560;9.714;2024-02-23T04:14:28;3.00;;;0.50;;
10248;SDS011;5169;50.560;9.714;2024-02-23T04:16:54;1.20;;;0.53;;
10248;SDS011;5169;50.560;9.714;2024-02-23T04:19:19;1.43;;;0.77;;
10248;SDS011;5169;50.560;9.714;2024-02-23T04:21:45;3.00;;;0.60;;
10248;SDS011;5169;50.560;9.714;2024-02-23T04:24:11;2.40;;;0.37;;
10248;SDS011;5169;50.560;9.714;2024-02-23T04:26:38;1.90;;;0.53;;
10248;SDS011;5169;50.560;9.714;2024-02-23T04:29:04;0.63;;;0.33;;
10248;SDS011;5169;50.560;9.714;2024-02-23T04:31:29;0.67;;;0.23;;
10248;SDS011;5169;50.560;9.714;2024-02-23T04:33:55;1.67;;;0.60;;
10248;SDS011;5169;50.560;9.714;2024-02-23T04:36:23;2.27;;;0.80;;
10248;SDS011;5169;50.560;9.714;2024-02-23T04:38:50;1.40;;;0.60;;
10248;SDS011;5169;50.560;9.714;2024-02-23T04:41:21;2.60;;;0.70;;
10248;SDS011;5169;50.560;9.714;2024-02-23T04:43:47;2.47;;;0.80;;
10248;SDS011;5169;50.560;9.714;2024-02-23T04:46:13;1.37;;;0.70;;
10248;SDS011;5169;50.560;9.714;2024-02-23T04:48:38;1.70;;;0.63;;
10248;SDS011;5169;50.560;9.714;2024-02-23T04:51:07;1.67;;;0.73;;
10248;SDS011;5169;50.560;9.714;2024-02-23T04:53:37;1.60;;;0.87;;
10248;SDS011;5169;50.560;9.714;2024-02-23T04:56:04;1.90;;;0.50;;
10248;SDS011;5169;50.560;9.714;2024-02-23T04:58:30;1.30;;;0.53;;
10248;SDS011;5169;50.560;9.714;2024-02-23T05:00:55;1.83;;;0.60;;
10248;SDS011;5169;50.560;9.714;2024-02-23T05:03:21;2.03;;;0.77;;
10248;SDS011;5169;50.560;9.714;2024-02-23T05:05:47;4.93;;;0.80;;
10248;SDS011;5169;50.560;9.714;2024-02-23T05:08:14;3.07;;;0.70;;
10248;SDS011;5169;50.560;9.714;2024-02-23T05:10:42;0.63;;;0.40;;
10248;SDS011;5169;50.560;9.714;2024-02-23T05:13:08;3.97;;;0.60;;
10248;SDS011;5169;50.560;9.714;2024-02-23T05:15:33;3.13;;;0.80;;
10248;SDS011;5169;50.560;9.714;2024-02-23T05:17:59;1.40;;;0.70;;
10248;SDS011;5169;50.560;9.714;2024-02-23T05:20:24;1.53;;;0.70;;
10248;SDS011;5169;50.560;9.714;2024-02-23T05:22:52;1.50;;;0.67;;
10248;SDS011;5169;50.560;9.714;2024-02-23T05:25:18;3.77;;;1.13;;
10248;SDS011;5169;50.560;9.714;2024-02-23T05:27:43;1.53;;;0.73;;
10248;SDS011;5169;50.560;9.714;2024-02-23T05:30:09;1.57;;;0.43;;
10248;SDS011;5169;50.560;9.714;2024-02-23T05:32:37;2.83;;;0.90;;
10248;SDS011;5169;50.560;9.714;2024-02-23T05:35:03;3.53;;;0.70;;
10248;SDS011;5169;50.560;9.714;2024-02-23T05:37:31;2.97;;;0.93;;
10248;SDS011;5169;50.560;9.714;2024-02-23T05:39:59;2.93;;;0.90;;
10248;SDS011;5169;50.560;9.714;2024-02-23T05:42:25;2.67;;;1.00;;
10248;SDS011;5169;50.560;9.714;2024-02-23T05:44:51;2.30;;;0.80;;
10248;SDS011;5169;50.560;9.714;2024-02-23T05:47:16;3.93;;;0.90;;
10248;SDS011;5169;50.560;9.714;2024-02-23T05:49:42;3.50;;;0.80;;
10248;SDS011;5169;50.560;9.714;2024-02-23T05:52:10;2.93;;;0.90;;
10248;SDS011;5169;50.560;9.714;2024-02-23T05:54:36;4.70;;;1.00;;
10248;SDS011;5169;50.560;9.714;2024-02-23T05:57:01;3.63;;;0.80;;
10248;SDS011;5169;50.560;9.714;2024-02-23T05:59:29;4.23;;;0.63;;
10248;SDS011;5169;50.560;9.714;2024-02-23T06:01:57;3.03;;;0.73;;
10248;SDS011;5169;50.560;9.714;2024-02-23T06:04:25;2.47;;;0.90;;
10248;SDS011;5169;50.560;9.714;2024-02-23T06:06:51;3.60;;;0.90;;
10248;SDS011;5169;50.560;9.714;2024-02-23T06:09:19;2.70;;;0.90;;
10248;SDS011;5169;50.560;9.714;2024-02-23T06:11:45;3.17;;;1.00;;
10248;SDS011;5169;50.560;9.714;2024-02-23T06:14:13;1.73;;;0.93;;
10248;SDS011;5169;50.560;9.714;2024-02-23T06:16:41;1.20;;;0.87;;
10248;SDS011;5169;50.560;9.714;2024-02-23T06:19:07;2.23;;;0.87;;
10248;SDS011;5169;50.560;9.714;2024-02-23T06:21:33;2.80;;;0.70;;
10248;SDS011;5169;50.560;9.714;2024-02-23T06:24:01;2.60;;;0.83;;
10248;SDS011;5169;50.560;9.714;2024-02-23T06:26:27;2.60;;;0.80;;
10248;SDS011;5169;50.560;9.714;2024-02-23T06:28:53;3.37;;;0.87;;
10248;SDS011;5169;50.560;9.714;2024-02-23T06:31:18;3.30;;;1.00;;
10248;SDS011;5169;50.560;9.714;2024-02-23T06:33:44;4.00;;;0.90;;
10248;SDS011;5169;50.560;9.714;2024-02-23T06:36:15;3.30;;;1.03;;
10248;SDS011;5169;50.560;9.714;2024-02-23T06:38:41;2.40;;;0.80;;
10248;SDS011;5169;50.560;9.714;2024-02-23T06:41:06;5.57;;;0.90;;
10248;SDS011;5169;50.560;9.714;2024-02-23T06:43:33;2.60;;;1.10;;
10248;SDS011;5169;50.560;9.714;2024-02-23T06:46:07;3.17;;;0.93;;
10248;SDS011;5169;50.560;9.714;2024-02-23T06:48:36;2.37;;;0.70;;
10248;SDS011;5169;50.560;9.714;2024-02-23T06:51:05;3.70;;;1.10;;
10248;SDS011;5169;50.560;9.714;2024-02-23T06:53:34;3.63;;;1.07;;
10248;SDS011;5169;50.560;9.714;2024-02-23T06:56:04;2.17;;;1.00;;
10248;SDS011;5169;50.560;9.714;2024-02-23T06:58:30;1.87;;;0.87;;
10248;SDS011;5169;50.560;9.714;2024-02-23T07:00:56;2.63;;;1.00;;
10248;SDS011;5169;50.560;9.714;2024-02-23T07:03:21;1.80;;;0.80;;
10248;SDS011;5169;50.560;9.714;2024-02-23T07:05:47;2.13;;;0.83;;
10248;SDS011;5169;50.560;9.714;2024-02-23T07:08:14;2.80;;;0.90;;
10248;SDS011;5169;50.560;9.714;2024-02-23T07:10:42;1.97;;;0.90;;
10248;SDS011;5169;50.560;9.714;2024-02-23T07:13:10;2.23;;;1.00;;
10248;SDS011;5169;50.560;9.714;2024-02-23T07:15:36;2.50;;;1.17;;
10248;SDS011;5169;50.560;9.714;2024-02-23T07:18:02;2.73;;;0.93;;
10248;SDS011;5169;50.560;9.714;2024-02-23T07:20:28;2.30;;;1.00;;
10248;SDS011;5169;50.560;9.714;2024-02-23T07:22:56;5.27;;;1.00;;
10248;SDS011;5169;50.560;9.714;2024-02-23T07:25:23;2.13;;;0.83;;
10248;SDS011;5169;50.560;9.714;2024-02-23T07:27:49;3.20;;;1.20;;
10248;SDS011;5169;50.560;9.714;2024-02-23T07:30:15;1.87;;;0.90;;
10248;SDS011;5169;50.560;9.714;2024-02-23T07:32:42;2.87;;;1.00;;
10248;SDS011;5169;50.560;9.714;2024-02-23T07:35:08;3.27;;;1.20;;
10248;SDS011;5169;50.560;9.714;2024-02-23T07:37:36;3.80;;;1.37;;
10248;SDS011;5169;50.560;9.714;2024-02-23T07:40:03;3.30;;;1.10;;
10248;SDS011;5169;50.560;9.714;2024-02-23T07:42:29;2.93;;;0.90;;
10248;SDS011;5169;50.560;9.714;2024-02-23T07:44:58;3.33;;;1.10;;
10248;SDS011;5169;50.560;9.714;2024-02-23T07:47:23;3.37;;;1.17;;
10248;SDS011;5169;50.560;9.714;2024-02-23T07:49:52;1.53;;;0.80;;
10248;SDS011;5169;50.560;9.714;2024-02-23T07:52:19;1.90;;;0.97;;
10248;SDS011;5169;50.560;9.714;2024-02-23T07:54:47;2.90;;;1.30;;
10248;SDS011;5169;50.560;9.714;2024-02-23T07:57:13;5.27;;;1.30;;
10248;SDS011;5169;50.560;9.714;2024-02-23T07:59:41;2.27;;;1.10;;
10248;SDS011;5169;50.560;9.714;2024-02-23T08:02:07;2.00;;;1.30;;
10248;SDS011;5169;50.560;9.714;2024-02-23T08:04:35;5.53;;;1.50;;
10248;SDS011;5169;50.560;9.714;2024-02-23T08:07:03;3.07;;;1.53;;
10248;SDS011;5169;50.560;9.714;2024-02-23T08:09:31;3.80;;;1.30;;
10248;SDS011;5169;50.560;9.714;2024-02-23T08:11:57;3.00;;;1.40;;
10248;SDS011;5169;50.560;9.714;2024-02-23T08:14:23;4.83;;;2.63;;
10248;SDS011;5169;50.560;9.714;2024-02-23T08:16:48;6.67;;;2.40;;
10248;SDS011;5169;50.560;9.714;2024-02-23T08:19:15;3.53;;;1.80;;
10248;SDS011;5169;50.560;9.714;2024-02-23T08:21:40;2.27;;;1.40;;
10248;SDS011;5169;50.560;9.714;2024-02-23T08:24:06;5.37;;;1.60;;
10248;SDS011;5169;50.560;9.714;2024-02-23T08:26:35;4.93;;;1.70;;
10248;SDS011;5169;50.560;9.714;2024-02-23T08:29:03;3.83;;;1.60;;
10248;SDS011;5169;50.560;9.714;2024-02-23T08:31:33;4.47;;;1.60;;
10248;SDS011;5169;50.560;9.714;2024-02-23T08:34:01;3.30;;;1.50;;
10248;SDS011;5169;50.560;9.714;2024-02-23T08:36:27;3.30;;;1.60;;
10248;SDS011;5169;50.560;9.714;2024-02-23T08:38:55;2.77;;;1.30;;
10248;SDS011;5169;50.560;9.714;2024-02-23T08:41:20;3.60;;;1.20;;
10248;SDS011;5169;50.560;9.714;2024-02-23T08:43:46;3.93;;;1.00;;
10248;SDS011;5169;50.560;9.714;2024-02-23T08:46:16;3.97;;;1.10;;
10248;SDS011;5169;50.560;9.714;2024-02-23T08:48:42;1.83;;;0.97;;
10248;SDS011;5169;50.560;9.714;2024-02-23T08:51:07;4.60;;;1.53;;
10248;SDS011;5169;50.560;9.714;2024-02-23T08:53:35;3.03;;;1.30;;
10248;SDS011;5169;50.560;9.714;2024-02-23T08:56:01;4.60;;;1.50;;
10248;SDS011;5169;50.560;9.714;2024-02-23T08:58:27;5.20;;;1.07;;
10248;SDS011;5169;50.560;9.714;2024-02-23T09:00:52;3.47;;;1.00;;
10248;SDS011;5169;50.560;9.714;2024-02-23T09:03:18;2.13;;;1.13;;
10248;SDS011;5169;50.560;9.714;2024-02-23T09:05:43;4.13;;;1.10;;
10248;SDS011;5169;50.560;9.714;2024-02-23T09:08:12;1.80;;;0.87;;
10248;SDS011;5169;50.560;9.714;2024-02-23T09:10:39;2.77;;;1.20;;
10248;SDS011;5169;50.560;9.714;2024-02-23T09:13:05;2.07;;;0.83;;
10248;SDS011;5169;50.560;9.714;2024-02-23T09:15:31;3.93;;;1.10;;
10248;SDS011;5169;50.560;9.714;2024-02-23T09:17:59;1.17;;;0.60;;
10248;SDS011;5169;50.560;9.714;2024-02-23T09:20:24;1.93;;;0.97;;
10248;SDS011;5169;50.560;9.714;2024-02-23T09:22:52;1.90;;;0.80;;
10248;SDS011;5169;50.560;9.714;2024-02-23T09:25:18;3.03;;;1.10;;
10248;SDS011;5169;50.560;9.714;2024-02-23T09:27:46;2.07;;;0.90;;
10248;SDS011;5169;50.560;9.714;2024-02-23T09:30:12;1.70;;;0.87;;
10248;SDS011;5169;50.560;9.714;2024-02-23T09:32:38;3.60;;;1.10;;
10248;SDS011;5169;50.560;9.714;2024-02-23T09:35:04;2.87;;;1.00;;
10248;SDS011;5169;50.560;9.714;2024-02-23T09:37:31;2.07;;;0.83;;
10248;SDS011;5169;50.560;9.714;2024-02-23T09:39:56;6.13;;;1.30;;
10248;SDS011;5169;50.560;9.714;2024-02-23T09:42:24;1.57;;;0.83;;
10248;SDS011;5169;50.560;9.714;2024-02-23T09:44:57;5.30;;;0.93;;
10248;SDS011;5169;50.560;9.714;2024-02-23T09:47:26;6.97;;;1.20;;
10248;SDS011;5169;50.560;9.714;2024-02-23T09:49:53;3.17;;;1.03;;
10248;SDS011;5169;50.560;9.714;2024-02-23T09:52:20;3.07;;;1.07;;
10248;SDS011;5169;50.560;9.714;2024-02-23T09:54:48;3.20;;;1.00;;
10248;SDS011;5169;50.560;9.714;2024-02-23T09:57:14;4.07;;;1.23;;
10248;SDS011;5169;50.560;9.714;2024-02-23T09:59:42;4.60;;;1.10;;
10248;SDS011;5169;50.560;9.714;2024-02-23T10:02:15;3.70;;;0.80;;
10248;SDS011;5169;50.560;9.714;2024-02-23T10:04:42;3.60;;;0.80;;
10248;SDS011;5169;50.560;9.714;2024-02-23T10:07:08;4.77;;;1.30;;
10248;SDS011;5169;50.560;9.714;2024-02-23T10:09:36;2.73;;;1.10;;
10248;SDS011;5169;50.560;9.714;2024-02-23T10:12:02;2.90;;;1.00;;
10248;SDS011;5169;50.560;9.714;2024-02-23T10:14:33;2.20;;;1.10;;
10248;SDS011;5169;50.560;9.714;2024-02-23T10:16:59;1.53;;;0.70;;
10248;SDS011;5169;50.560;9.714;2024-02-23T10:19:26;1.77;;;0.70;;
10248;SDS011;5169;50.560;9.714;2024-02-23T10:21:54;2.83;;;0.97;;
10248;SDS011;5169;50.560;9.714;2024-02-23T10:24:20;2.40;;;0.90;;
10248;SDS011;5169;50.560;9.714;2024-02-23T10:26:46;2.40;;;1.00;;
10248;SDS011;5169;50.560;9.714;2024-02-23T10:29:12;3.10;;;1.00;;
10248;SDS011;5169;50.560;9.714;2024-02-23T10:31:42;4.40;;;1.30;;
10248;SDS011;5169;50.560;9.714;2024-02-23T10:34:12;2.30;;;1.20;;
10248;SDS011;5169;50.560;9.714;2024-02-23T10:36:40;2.93;;;1.30;;
10248;SDS011;5169;50.560;9.714;2024-02-23T10:39:07;3.10;;;1.07;;
10248;SDS011;5169;50.560;9.714;2024-02-23T10:41:34;4.27;;;1.00;;
10248;SDS011;5169;50.560;9.714;2024-02-23T10:44:04;2.87;;;0.80;;
10248;SDS011;5169;50.560;9.714;2024-02-23T10:46:34;2.87;;;0.83;;
10248;SDS011;5169;50.560;9.714;2024-02-23T10:49:00;3.70;;;0.70;;
10248;SDS011;5169;50.560;9.714;2024-02-23T10:51:29;1.40;;;0.80;;
10248;SDS011;5169;50.560;9.714;2024-02-23T10:53:57;4.40;;;1.00;;
10248;SDS011;5169;50.560;9.714;2024-02-23T10:56:25;2.43;;;0.73;;
10248;SDS011;5169;50.560;9.714;2024-02-23T10:58:53;3.87;;;1.00;;
10248;SDS011;5169;50.560;9.714;2024-02-23T11:01:20;3.33;;;1.23;;
10248;SDS011;5169;50.560;9.714;2024-02-23T11:03:46;2.60;;;0.60;;
10248;SDS011;5169;50.560;9.714;2024-02-23T11:06:15;5.37;;;0.90;;
10248;SDS011;5169;50.560;9.714;2024-02-23T11:08:49;1.60;;;0.93;;
10248;SDS011;5169;50.560;9.714;2024-02-23T11:11:18;4.67;;;1.00;;
10248;SDS011;5169;50.560;9.714;2024-02-23T11:13:44;1.80;;;1.07;;
10248;SDS011;5169;50.560;9.714;2024-02-23T11:16:21;4.33;;;1.20;;
10248;SDS011;5169;50.560;9.714;2024-02-23T11:19:00;2.47;;;1.00;;
10248;SDS011;5169;50.560;9.714;2024-02-23T11:21:34;3.53;;;1.10;;
10248;SDS011;5169;50.560;9.714;2024-02-23T11:24:03;2.60;;;1.00;;
10248;SDS011;5169;50.560;9.714;2024-02-23T11:26:29;2.80;;;0.97;;
10248;SDS011;5169;50.560;9.714;2024-02-23T11:28:54;3.60;;;1.00;;
10248;SDS011;5169;50.560;9.714;2024-02-23T11:31:23;1.60;;;0.70;;
10248;SDS011;5169;50.560;9.714;2024-02-23T11:33:51;3.93;;;1.00;;
10248;SDS011;5169;50.560;9.714;2024-02-23T11:36:24;7.63;;;1.13;;
10248;SDS011;5169;50.560;9.714;2024-02-23T11:38:58;2.47;;;0.97;;
10248;SDS011;5169;50.560;9.714;2024-02-23T11:41:25;4.70;;;1.40;;
10248;SDS011;5169;50.560;9.714;2024-02-23T11:43:51;6.13;;;0.87;;
10248;SDS011;5169;50.560;9.714;2024-02-23T11:46:28;3.37;;;0.90;;
10248;SDS011;5169;50.560;9.714;2024-02-23T11:48:53;4.83;;;1.13;;
10248;SDS011;5169;50.560;9.714;2024-02-23T11:51:22;4.50;;;0.90;;
10248;SDS011;5169;50.560;9.714;2024-02-23T11:53:52;4.33;;;1.10;;
10248;SDS011;5169;50.560;9.714;2024-02-23T11:56:21;4.73;;;1.10;;
10248;SDS011;5169;50.560;9.714;2024-02-23T11:58:47;1.73;;;0.70;;
10248;SDS011;5169;50.560;9.714;2024-02-23T12:01:13;1.80;;;0.70;;
10248;SDS011;5169;50.560;9.714;2024-02-23T12:03:39;2.97;;;0.80;;
10248;SDS011;5169;50.560;9.714;2024-02-23T12:06:09;4.40;;;0.87;;
10248;SDS011;5169;50.560;9.714;2024-02-23T12:08:38;2.67;;;0.97;;
10248;SDS011;5169;50.560;9.714;2024-02-23T12:11:05;2.40;;;0.90;;
10248;SDS011;5169;50.560;9.714;2024-02-23T12:13:33;2.17;;;0.80;;
10248;SDS011;5169;50.560;9.714;2024-02-23T12:16:03;2.07;;;0.90;;
10248;SDS011;5169;50.560;9.714;2024-02-23T12:18:29;1.97;;;1.00;;
10248;SDS011;5169;50.560;9.714;2024-02-23T12:21:01;2.97;;;1.33;;
10248;SDS011;5169;50.560;9.714;2024-02-23T12:23:42;3.50;;;0.83;;
10248;SDS011;5169;50.560;9.714;2024-02-23T12:26:12;5.23;;;1.10;;
10248;SDS011;5169;50.560;9.714;2024-02-23T12:28:41;3.27;;;0.90;;
10248;SDS011;5169;50.560;9.714;2024-02-23T12:31:10;2.23;;;0.90;;
10248;SDS011;5169;50.560;9.714;2024-02-23T12:33:36;2.23;;;0.63;;
10248;SDS011;5169;50.560;9.714;2024-02-23T12:36:04;3.00;;;0.90;;
10248;SDS011;5169;50.560;9.714;2024-02-23T12:38:49;1.57;;;0.80;;
10248;SDS011;5169;50.560;9.714;2024-02-23T12:41:15;4.23;;;1.10;;
10248;SDS011;5169;50.560;9.714;2024-02-23T12:43:45;3.27;;;1.20;;
10248;SDS011;5169;50.560;9.714;2024-02-23T12:46:13;4.37;;;1.50;;
10248;SDS011;5169;50.560;9.714;2024-02-23T12:48:39;3.30;;;0.80;;
10248;SDS011;5169;50.560;9.714;2024-02-23T12:51:05;4.23;;;1.03;;
10248;SDS011;5169;50.560;9.714;2024-02-23T12:56:06;3.50;;;1.30;;
10248;SDS011;5169;50.560;9.714;2024-02-23T12:58:36;4.10;;;1.00;;
10248;SDS011;5169;50.560;9.714;2024-02-23T13:01:03;2.83;;;0.93;;
10248;SDS011;5169;50.560;9.714;2024-02-23T13:03:29;2.93;;;1.30;;
10248;SDS011;5169;50.560;9.714;2024-02-23T13:05:57;3.33;;;1.00;;
10248;SDS011;5169;50.560;9.714;2024-02-23T13:08:26;2.83;;;0.90;;
10248;SDS011;5169;50.560;9.714;2024-02-23T13:10:56;2.63;;;0.73;;
10248;SDS011;5169;50.560;9.714;2024-02-23T13:13:22;2.17;;;0.90;;
10248;SDS011;5169;50.560;9.714;2024-02-23T13:15:49;5.37;;;0.80;;
10248;SDS011;5169;50.560;9.714;2024-02-23T13:18:19;2.23;;;0.90;;
10248;SDS011;5169;50.560;9.714;2024-02-23T13:20:45;2.70;;;0.70;;
10248;SDS011;5169;50.560;9.714;2024-02-23T13:23:14;2.37;;;0.80;;
10248;SDS011;5169;50.560;9.714;2024-02-23T13:25:40;3.47;;;0.83;;
10248;SDS011;5169;50.560;9.714;2024-02-23T13:28:09;3.83;;;1.17;;
10248;SDS011;5169;50.560;9.714;2024-02-23T13:30:37;2.17;;;0.83;;
10248;SDS011;5169;50.560;9.714;2024-02-23T13:33:04;2.03;;;0.60;;
10248;SDS011;5169;50.560;9.714;2024-02-23T13:35:31;3.13;;;0.77;;
10248;SDS011;5169;50.560;9.714;2024-02-23T13:37:56;2.40;;;0.70;;
10248;SDS011;5169;50.560;9.714;2024-02-23T13:40:25;2.63;;;0.90;;
10248;SDS011;5169;50.560;9.714;2024-02-23T13:42:50;4.17;;;1.30;;
10248;SDS011;5169;50.560;9.714;2024-02-23T13:45:18;4.57;;;1.17;;
10248;SDS011;5169;50.560;9.714;2024-02-23T13:48:00;4.37;;;1.40;;
10248;SDS011;5169;50.560;9.714;2024-02-23T13:50:33;4.70;;;1.40;;
10248;SDS011;5169;50.560;9.714;2024-02-23T13:52:58;6.83;;;1.30;;
10248;SDS011;5169;50.560;9.714;2024-02-23T13:55:24;4.07;;;1.20;;
10248;SDS011;5169;50.560;9.714;2024-02-23T13:57:50;5.07;;;1.40;;
10248;SDS011;5169;50.560;9.714;2024-02-23T14:00:18;3.83;;;1.03;;
10248;SDS011;5169;50.560;9.714;2024-02-23T14:02:45;5.70;;;1.13;;
10248;SDS011;5169;50.560;9.714;2024-02-23T14:05:11;3.23;;;1.10;;
10248;SDS011;5169;50.560;9.714;2024-02-23T14:07:37;3.17;;;0.97;;
10248;SDS011;5169;50.560;9.714;2024-02-23T14:10:03;4.73;;;1.00;;
10248;SDS011;5169;50.560;9.714;2024-02-23T14:12:29;1.73;;;0.60;;
10248;SDS011;5169;50.560;9.714;2024-02-23T14:14:55;2.40;;;0.90;;
10248;SDS011;5169;50.560;9.714;2024-02-23T14:17:20;2.83;;;0.70;;
10248;SDS011;5169;50.560;9.714;2024-02-23T14:19:46;4.77;;;1.20;;
10248;SDS011;5169;50.560;9.714;2024-02-23T14:22:15;4.90;;;1.10;;
10248;SDS011;5169;50.560;9.714;2024-02-23T14:24:41;3.60;;;1.10;;
10248;SDS011;5169;50.560;9.714;2024-02-23T14:27:07;3.10;;;0.90;;
10248;SDS011;5169;50.560;9.714;2024-02-23T14:29:35;2.57;;;0.77;;
10248;SDS011;5169;50.560;9.714;2024-02-23T14:32:00;2.17;;;0.90;;
10248;SDS011;5169;50.560;9.714;2024-02-23T14:34:30;2.87;;;1.37;;
10248;SDS011;5169;50.560;9.714;2024-02-23T14:36:59;3.43;;;1.37;;
10248;SDS011;5169;50.560;9.714;2024-02-23T14:39:25;5.03;;;1.30;;
10248;SDS011;5169;50.560;9.714;2024-02-23T14:41:50;3.63;;;1.10;;
10248;SDS011;5169;50.560;9.714;2024-02-23T14:44:20;3.87;;;0.90;;
10248;SDS011;5169;50.560;9.714;2024-02-23T14:46:46;4.63;;;1.20;;
10248;SDS011;5169;50.560;9.714;2024-02-23T14:49:11;4.57;;;1.30;;
10248;SDS011;5169;50.560;9.714;2024-02-23T14:51:37;2.80;;;1.23;;
10248;SDS011;5169;50.560;9.714;2024-02-23T14:54:03;4.27;;;1.00;;
10248;SDS011;5169;50.560;9.714;2024-02-23T14:56:28;3.20;;;1.30;;
10248;SDS011;5169;50.560;9.714;2024-02-23T14:58:57;4.03;;;1.23;;
10248;SDS011;5169;50.560;9.714;2024-02-23T15:01:25;2.20;;;1.00;;